createdAt,value
2019-03-31T00:04:20.858Z,47.03
2019-03-31T00:06:50.686Z,46.96
2019-03-31T00:09:20.460Z,46.97
2019-03-31T00:11:50.289Z,47.13
2019-03-31T00:14:20.091Z,47.24
2019-03-31T00:16:52.422Z,46.72
2019-03-31T00:19:21.412Z,46.85
2019-03-31T00:21:51.568Z,46.80
2019-03-31T00:24:21.327Z,46.58
2019-03-31T00:26:51.265Z,46.69
2019-03-31T00:29:21.042Z,46.86
2019-03-31T00:31:51.411Z,47.01
2019-03-31T00:34:21.162Z,47.17
2019-03-31T00:36:51.022Z,48.13
2019-03-31T00:39:20.859Z,48.03
2019-03-31T00:41:50.803Z,48.06
2019-03-31T00:44:20.936Z,47.82
2019-03-31T00:46:50.893Z,47.97
2019-03-31T00:49:20.803Z,48.08
2019-03-31T00:51:50.871Z,48.30
2019-03-31T00:54:21.168Z,48.36
2019-03-31T00:56:51.030Z,48.31
2019-03-31T00:59:20.892Z,48.51
2019-03-31T01:01:53.889Z,48.47
2019-03-31T01:05:03.820Z,48.57
2019-03-31T01:07:33.822Z,48.72
2019-03-31T01:10:24.035Z,48.77
2019-03-31T01:12:54.007Z,48.75
2019-03-31T01:16:02.865Z,49.10
2019-03-31T01:18:32.719Z,49.07
2019-03-31T01:21:02.608Z,49.41
2019-03-31T01:23:32.462Z,49.47
2019-03-31T01:26:02.231Z,49.42
2019-03-31T01:28:32.079Z,49.63
2019-03-31T01:31:02.359Z,49.88
2019-03-31T01:33:32.191Z,49.96
2019-03-31T01:36:01.903Z,50.01
2019-03-31T01:38:31.835Z,50.25
2019-03-31T01:41:02.018Z,50.29
2019-03-31T01:43:31.850Z,50.38
2019-03-31T01:46:01.944Z,50.44
2019-03-31T01:48:32.059Z,50.43
2019-03-31T01:51:01.808Z,50.36
2019-03-31T01:53:31.661Z,50.34
2019-03-31T01:56:01.427Z,50.67
2019-03-31T01:58:31.253Z,50.68
2019-03-31T02:03:52.416Z,50.81
2019-03-31T02:06:22.153Z,50.92
2019-03-31T02:08:51.988Z,50.92
2019-03-31T02:11:21.762Z,51.07
2019-03-31T02:13:51.613Z,51.16
2019-03-31T02:16:21.355Z,51.40
2019-03-31T02:18:51.096Z,51.57
2019-03-31T02:21:21.234Z,51.59
2019-03-31T02:23:50.984Z,51.50
2019-03-31T02:26:21.738Z,51.57
2019-03-31T02:28:51.494Z,51.68
2019-03-31T02:31:21.309Z,51.83
2019-03-31T02:33:51.046Z,51.52
2019-03-31T02:36:20.909Z,51.71
2019-03-31T02:38:50.652Z,51.99
2019-03-31T02:41:20.538Z,52.12
2019-03-31T02:43:50.280Z,51.85
2019-03-31T02:46:20.253Z,51.90
2019-03-31T02:48:49.999Z,52.08
2019-03-31T02:51:19.979Z,52.24
2019-03-31T02:53:49.723Z,52.29
2019-03-31T02:59:54.051Z,52.44
2019-03-31T03:06:12.177Z,52.24
2019-03-31T03:09:21.033Z,52.38
2019-03-31T03:12:29.957Z,52.46
2019-03-31T03:15:38.891Z,52.63
2019-03-31T03:18:09.012Z,52.85
2019-03-31T03:20:38.845Z,52.94
2019-03-31T03:23:08.605Z,53.06
2019-03-31T03:25:54.873Z,52.87
2019-03-31T03:28:10.769Z,52.79
2019-03-31T03:30:40.977Z,53.01
2019-03-31T03:33:31.598Z,53.00
2019-03-31T03:36:02.070Z,52.97
2019-03-31T03:38:31.808Z,52.72
2019-03-31T03:41:04.443Z,53.33
2019-03-31T03:43:34.196Z,53.42
2019-03-31T03:46:04.046Z,53.10
2019-03-31T03:48:33.838Z,53.26
2019-03-31T03:51:03.842Z,53.39
2019-03-31T03:53:33.870Z,53.35
2019-03-31T03:56:03.764Z,53.08
2019-03-31T03:58:33.510Z,53.39
2019-03-31T04:03:40.120Z,53.77
2019-03-31T04:06:10.033Z,54.08
2019-03-31T04:08:40.047Z,54.20
2019-03-31T04:11:29.064Z,54.60
2019-03-31T04:14:38.002Z,53.55
2019-03-31T04:17:07.826Z,53.37
2019-03-31T04:19:38.121Z,53.03
2019-03-31T04:22:07.972Z,53.44
2019-03-31T04:24:37.717Z,53.32
2019-03-31T04:27:07.532Z,53.16
2019-03-31T04:29:37.252Z,53.16
2019-03-31T04:32:07.073Z,53.22
2019-03-31T04:34:36.816Z,52.61
2019-03-31T04:37:06.982Z,52.85
2019-03-31T04:39:36.715Z,52.50
2019-03-31T04:42:06.627Z,52.51
2019-03-31T04:44:36.384Z,52.57
2019-03-31T04:47:06.218Z,52.21
2019-03-31T04:49:35.965Z,52.12
2019-03-31T04:52:05.803Z,52.04
2019-03-31T04:54:35.572Z,52.06
2019-03-31T04:57:05.528Z,52.06
2019-03-31T04:59:35.299Z,52.44
2019-03-31T05:02:05.119Z,52.46
2019-03-31T05:04:34.847Z,52.27
2019-03-31T05:07:04.712Z,52.42
2019-03-31T05:09:34.478Z,52.61
2019-03-31T05:12:04.659Z,52.38
2019-03-31T05:14:34.411Z,52.33
2019-03-31T05:17:04.234Z,52.22
2019-03-31T05:19:33.972Z,52.41
2019-03-31T05:22:03.790Z,52.41
2019-03-31T05:24:33.534Z,52.55
2019-03-31T05:27:03.629Z,52.16
2019-03-31T05:29:33.751Z,51.96
2019-03-31T05:32:03.842Z,52.26
2019-03-31T05:34:33.597Z,52.37
2019-03-31T05:37:03.421Z,52.25
2019-03-31T05:39:33.191Z,52.51
2019-03-31T05:42:03.107Z,52.25
2019-03-31T05:44:32.848Z,52.10
2019-03-31T05:47:03.152Z,51.81
2019-03-31T05:49:33.282Z,51.78
2019-03-31T05:52:03.102Z,51.57
2019-03-31T05:54:33.115Z,51.02
2019-03-31T05:57:02.923Z,50.67
2019-03-31T05:59:32.677Z,50.54
2019-03-31T06:02:02.493Z,50.31
2019-03-31T06:04:33.442Z,50.10
2019-03-31T06:07:03.784Z,50.18
2019-03-31T06:09:33.536Z,49.73
2019-03-31T06:12:03.334Z,49.69
2019-03-31T06:14:33.438Z,49.73
2019-03-31T06:17:03.565Z,49.45
2019-03-31T06:19:33.314Z,49.50
2019-03-31T06:22:03.145Z,49.12
2019-03-31T06:24:32.893Z,48.72
2019-03-31T06:27:41.809Z,48.59
2019-03-31T06:30:11.941Z,48.81
2019-03-31T06:32:41.752Z,48.12
2019-03-31T06:35:11.899Z,47.90
2019-03-31T06:37:41.709Z,47.92
2019-03-31T06:40:11.451Z,47.46
2019-03-31T06:42:41.342Z,46.92
2019-03-31T06:45:50.186Z,46.60
2019-03-31T06:48:20.001Z,46.55
2019-03-31T06:50:49.746Z,46.21
2019-03-31T06:53:19.568Z,46.56
2019-03-31T06:55:49.306Z,45.55
2019-03-31T06:58:19.122Z,45.82
2019-03-31T07:00:48.893Z,45.33
2019-03-31T07:03:18.691Z,44.96
2019-03-31T07:05:48.453Z,45.10
2019-03-31T07:08:18.231Z,44.50
2019-03-31T07:10:48.052Z,44.16
2019-03-31T07:13:18.172Z,43.57
2019-03-31T07:15:48.393Z,43.52
2019-03-31T07:18:19.513Z,43.25
2019-03-31T07:21:09.689Z,42.68
2019-03-31T07:23:39.433Z,42.50
2019-03-31T07:26:09.321Z,41.91
2019-03-31T07:28:39.183Z,41.67
2019-03-31T07:31:09.024Z,41.58
2019-03-31T07:33:38.979Z,41.00
2019-03-31T07:36:08.813Z,40.75
2019-03-31T07:38:39.593Z,40.65
2019-03-31T07:41:13.145Z,40.38
2019-03-31T07:43:41.709Z,40.13
2019-03-31T07:46:11.532Z,39.66
2019-03-31T07:48:41.283Z,39.41
2019-03-31T07:51:11.111Z,39.35
2019-03-31T07:53:41.190Z,39.04
2019-03-31T07:56:11.151Z,38.97
2019-03-31T07:58:40.921Z,38.79
2019-03-31T08:01:10.706Z,38.35
2019-03-31T08:03:40.458Z,40.09
2019-03-31T08:06:10.311Z,37.94
2019-03-31T08:08:40.071Z,37.10
2019-03-31T08:11:09.939Z,37.02
2019-03-31T08:13:39.692Z,36.96
2019-03-31T08:16:09.508Z,37.58
2019-03-31T08:18:39.331Z,36.38
2019-03-31T08:21:09.217Z,36.27
2019-03-31T08:23:38.994Z,36.00
2019-03-31T08:26:08.818Z,36.28
2019-03-31T08:28:38.642Z,36.93
2019-03-31T08:31:08.402Z,36.07
2019-03-31T08:33:38.222Z,35.62
2019-03-31T08:36:08.041Z,36.18
2019-03-31T08:41:26.962Z,34.63
2019-03-31T08:43:56.821Z,34.32
2019-03-31T08:49:17.503Z,35.84
2019-03-31T08:52:06.053Z,36.18
2019-03-31T08:54:35.802Z,35.23
2019-03-31T08:57:05.730Z,35.79
2019-03-31T08:59:35.580Z,35.71
2019-03-31T09:02:24.751Z,34.09
2019-03-31T09:04:54.549Z,36.71
2019-03-31T09:07:43.380Z,35.35
2019-03-31T09:10:52.323Z,35.35
2019-03-31T09:13:22.264Z,34.29
2019-03-31T09:15:52.052Z,33.65
2019-03-31T09:18:21.898Z,34.31
2019-03-31T09:20:51.998Z,34.19
2019-03-31T09:23:28.828Z,33.71
2019-03-31T09:25:58.581Z,31.98
2019-03-31T09:28:28.429Z,32.10
2019-03-31T09:30:58.518Z,32.30
2019-03-31T09:33:28.763Z,31.99
2019-03-31T09:35:58.860Z,32.03
2019-03-31T09:38:28.688Z,32.82
2019-03-31T09:40:58.448Z,31.06
2019-03-31T09:43:28.305Z,32.16
2019-03-31T09:45:58.521Z,31.21
2019-03-31T09:48:28.277Z,31.07
2019-03-31T09:50:58.457Z,30.48
2019-03-31T09:53:28.238Z,30.81
2019-03-31T09:55:58.090Z,32.17
2019-03-31T09:58:27.852Z,33.90
2019-03-31T10:01:37.059Z,30.21
2019-03-31T10:04:07.150Z,28.82
2019-03-31T10:06:37.355Z,29.42
2019-03-31T10:09:47.517Z,29.45
2019-03-31T10:12:17.347Z,29.78
2019-03-31T10:14:47.357Z,27.89
2019-03-31T10:17:17.181Z,28.08
2019-03-31T10:19:47.274Z,27.46
2019-03-31T10:22:17.499Z,27.67
2019-03-31T10:24:47.256Z,27.97
2019-03-31T10:27:17.101Z,27.77
2019-03-31T10:29:47.137Z,27.80
2019-03-31T10:32:16.888Z,27.74
2019-03-31T10:34:46.705Z,27.45
2019-03-31T10:37:16.453Z,27.33
2019-03-31T10:39:46.331Z,27.08
2019-03-31T10:42:16.286Z,27.55
2019-03-31T10:47:21.721Z,28.29
2019-03-31T10:49:51.575Z,28.69
2019-03-31T10:52:29.367Z,28.91
2019-03-31T10:55:38.848Z,28.61
2019-03-31T10:58:08.785Z,28.20
2019-03-31T11:00:58.882Z,28.07
2019-03-31T11:03:46.375Z,27.91
2019-03-31T11:06:39.872Z,27.72
2019-03-31T11:09:28.787Z,27.40
2019-03-31T11:11:58.981Z,27.58
2019-03-31T11:14:48.188Z,27.58
2019-03-31T11:17:08.080Z,27.47
2019-03-31T11:19:37.930Z,27.38
2019-03-31T11:25:20.306Z,27.35
2019-03-31T11:27:32.471Z,26.85
2019-03-31T11:30:02.335Z,27.20
2019-03-31T11:32:32.227Z,27.40
2019-03-31T11:35:02.417Z,27.44
2019-03-31T11:37:32.746Z,27.56
2019-03-31T11:43:12.151Z,27.45
2019-03-31T11:45:41.939Z,27.46
2019-03-31T11:48:11.693Z,27.16
2019-03-31T11:50:41.548Z,27.50
2019-03-31T11:53:11.326Z,27.92
2019-03-31T11:55:41.165Z,27.42
2019-03-31T11:58:13.125Z,27.16
2019-03-31T12:00:48.889Z,26.95
2019-03-31T12:03:18.729Z,27.05
2019-03-31T12:05:48.529Z,27.27
2019-03-31T12:08:18.435Z,27.74
2019-03-31T12:13:44.354Z,27.38
2019-03-31T12:16:33.266Z,27.40
2019-03-31T12:19:03.507Z,27.56
2019-03-31T12:21:33.791Z,27.33
2019-03-31T12:24:03.579Z,27.30
2019-03-31T12:26:33.348Z,26.78
2019-03-31T12:29:03.150Z,27.20
2019-03-31T12:32:12.216Z,27.00
2019-03-31T12:34:41.953Z,27.11
2019-03-31T12:37:11.829Z,26.91
2019-03-31T12:39:42.098Z,26.61
2019-03-31T12:45:01.681Z,26.78
2019-03-31T12:47:33.864Z,26.56
2019-03-31T12:50:03.759Z,26.11
2019-03-31T12:52:46.144Z,26.35
2019-03-31T12:55:06.063Z,26.41
2019-03-31T12:57:37.877Z,26.20
2019-03-31T13:03:17.093Z,26.09
2019-03-31T13:05:46.887Z,25.87
2019-03-31T13:08:16.713Z,26.06
2019-03-31T13:10:49.590Z,26.00
2019-03-31T13:13:19.776Z,25.85
2019-03-31T13:15:49.531Z,26.05
2019-03-31T13:18:19.485Z,26.07
2019-03-31T13:20:49.877Z,25.96
2019-03-31T13:23:19.780Z,25.77
2019-03-31T13:25:49.860Z,25.40
2019-03-31T13:28:19.709Z,25.65
2019-03-31T13:30:49.754Z,25.99
2019-03-31T13:33:21.384Z,25.57
2019-03-31T13:35:53.184Z,25.48
2019-03-31T13:38:23.219Z,25.47
2019-03-31T13:40:53.052Z,24.73
2019-03-31T13:43:22.986Z,24.52
2019-03-31T13:45:53.497Z,24.94
2019-03-31T13:48:25.592Z,25.18
2019-03-31T13:50:55.334Z,25.11
2019-03-31T13:54:06.098Z,24.81
2019-03-31T13:56:36.372Z,24.97
2019-03-31T13:59:09.110Z,24.81
2019-03-31T14:01:39.040Z,24.67
2019-03-31T14:04:08.992Z,24.77
2019-03-31T14:06:39.173Z,25.15
2019-03-31T14:09:10.054Z,24.82
2019-03-31T14:14:31.097Z,24.41
2019-03-31T14:17:00.971Z,24.40
2019-03-31T14:19:33.373Z,24.25
2019-03-31T14:22:22.819Z,24.33
2019-03-31T14:25:04.651Z,24.78
2019-03-31T14:30:35.040Z,24.78
2019-03-31T14:33:04.785Z,24.46
2019-03-31T14:35:37.911Z,24.43
2019-03-31T14:38:06.199Z,24.37
2019-03-31T14:40:36.096Z,24.70
2019-03-31T14:43:08.310Z,24.01
2019-03-31T14:45:58.649Z,23.56
2019-03-31T14:48:28.810Z,23.30
2019-03-31T14:50:58.680Z,23.27
2019-03-31T14:53:28.857Z,22.84
2019-03-31T14:56:17.680Z,22.48
2019-03-31T14:58:47.447Z,22.79
2019-03-31T15:01:21.058Z,22.53
2019-03-31T15:03:49.104Z,22.59
2019-03-31T15:09:14.432Z,22.70
2019-03-31T15:12:03.012Z,22.05
2019-03-31T15:14:32.840Z,21.97
2019-03-31T15:17:24.063Z,21.53
2019-03-31T15:19:53.951Z,21.22
2019-03-31T15:22:23.950Z,21.27
2019-03-31T15:24:54.144Z,20.87
2019-03-31T15:27:24.219Z,20.68
2019-03-31T15:29:53.995Z,20.40
2019-03-31T15:32:24.288Z,20.20
2019-03-31T15:34:54.421Z,19.53
2019-03-31T15:37:24.443Z,18.42
2019-03-31T15:39:54.251Z,17.23
2019-03-31T15:42:24.156Z,16.48
2019-03-31T15:45:33.421Z,15.64
2019-03-31T15:48:03.257Z,15.12
2019-03-31T15:50:51.926Z,14.16
2019-03-31T15:53:21.883Z,13.80
2019-03-31T15:55:51.741Z,13.44
2019-03-31T15:58:21.581Z,13.07
2019-03-31T16:00:51.717Z,12.88
2019-03-31T16:03:35.546Z,12.70
2019-03-31T16:05:53.098Z,12.58
2019-03-31T16:08:22.393Z,12.50
2019-03-31T16:10:51.765Z,12.50
2019-03-31T16:13:20.972Z,12.27
2019-03-31T16:18:27.552Z,12.31
2019-03-31T16:20:56.895Z,12.45
2019-03-31T16:23:26.140Z,12.65
2019-03-31T16:25:57.433Z,13.06
2019-03-31T16:28:26.680Z,13.07
2019-03-31T16:30:56.356Z,13.34
2019-03-31T16:33:25.570Z,13.60
2019-03-31T16:36:34.651Z,14.01
2019-03-31T16:42:13.132Z,16.01
2019-03-31T16:44:42.347Z,17.35
2019-03-31T16:47:25.252Z,18.73
2019-03-31T16:49:46.231Z,20.03
2019-03-31T16:52:43.758Z,21.22
2019-03-31T16:55:27.637Z,22.28
2019-03-31T16:57:45.130Z,23.43
2019-03-31T17:01:16.340Z,24.23
2019-03-31T17:03:27.710Z,24.64
2019-03-31T17:06:38.888Z,25.23
2019-03-31T17:12:22.997Z,26.33
2019-03-31T17:14:52.261Z,26.79
2019-03-31T17:17:21.592Z,27.09
2019-03-31T17:19:51.001Z,27.37
2019-03-31T17:22:20.879Z,27.31
2019-03-31T17:25:09.825Z,27.37
2019-03-31T17:27:55.863Z,27.66
2019-03-31T17:30:25.451Z,27.72
2019-03-31T17:32:54.740Z,27.82
2019-03-31T17:35:24.037Z,28.05
2019-03-31T17:37:53.334Z,28.32
2019-03-31T17:40:22.655Z,28.44
2019-03-31T17:42:52.404Z,28.62
2019-03-31T17:48:11.703Z,29.12
2019-03-31T17:51:20.315Z,29.09
2019-03-31T17:53:49.742Z,29.18
2019-03-31T17:56:19.135Z,29.36
2019-03-31T17:58:48.637Z,29.42
2019-03-31T18:01:18.239Z,29.48
2019-03-31T18:03:47.542Z,29.57
2019-03-31T18:06:16.745Z,29.87
2019-03-31T18:08:46.741Z,30.29
2019-03-31T18:11:16.182Z,30.04
2019-03-31T18:13:45.541Z,30.07
2019-03-31T18:19:05.389Z,30.31
2019-03-31T18:21:34.609Z,30.67
2019-03-31T18:24:23.476Z,30.60
2019-03-31T18:26:52.700Z,30.68
2019-03-31T18:29:22.007Z,30.62
2019-03-31T18:31:51.467Z,30.49
2019-03-31T18:34:20.935Z,30.75
2019-03-31T18:36:50.260Z,30.77
2019-03-31T18:39:19.568Z,30.78
2019-03-31T18:41:48.818Z,30.81
2019-03-31T18:44:18.188Z,31.04
2019-03-31T18:46:47.387Z,31.08
2019-03-31T18:49:16.675Z,31.20
2019-03-31T18:51:45.920Z,31.30
2019-03-31T18:54:34.160Z,31.67
2019-03-31T18:57:09.498Z,31.50
2019-03-31T18:59:58.624Z,31.53
2019-03-31T19:02:47.252Z,31.54
2019-03-31T19:05:35.716Z,31.59
2019-03-31T19:08:13.899Z,31.59
2019-03-31T19:11:02.122Z,31.62
2019-03-31T19:13:55.612Z,31.82
2019-03-31T19:16:40.321Z,31.85
2019-03-31T19:19:28.593Z,32.12
2019-03-31T19:22:17.379Z,32.15
2019-03-31T19:25:06.087Z,32.29
2019-03-31T19:27:54.780Z,32.40
2019-03-31T19:30:43.268Z,32.34
2019-03-31T19:33:24.292Z,32.42
2019-03-31T19:36:12.949Z,32.43
2019-03-31T19:39:01.163Z,32.52
2019-03-31T19:44:47.400Z,32.60
2019-03-31T19:47:35.555Z,32.77
2019-03-31T19:50:44.219Z,32.83
2019-03-31T19:53:32.362Z,32.88
2019-03-31T19:56:20.575Z,32.84
2019-03-31T19:59:08.820Z,32.94
2019-03-31T20:01:56.958Z,33.00
2019-03-31T20:04:45.694Z,33.01
2019-03-31T20:07:34.122Z,33.07
2019-03-31T20:10:22.739Z,33.23
2019-03-31T20:13:10.958Z,33.27
2019-03-31T20:16:02.458Z,33.22
2019-03-31T20:18:49.310Z,33.31
2019-03-31T20:21:37.917Z,33.35
2019-03-31T20:24:26.175Z,33.46
2019-03-31T20:27:14.907Z,33.57
2019-03-31T20:30:03.141Z,33.62
2019-03-31T20:32:51.373Z,33.67
2019-03-31T20:35:39.696Z,33.71
2019-03-31T20:38:17.996Z,33.73
2019-03-31T20:41:06.238Z,33.73
2019-03-31T20:43:54.703Z,33.84
2019-03-31T20:46:24.558Z,33.85
2019-03-31T20:48:56.975Z,33.85
2019-03-31T20:51:26.234Z,33.90
2019-03-31T20:54:35.867Z,34.07
2019-03-31T20:57:05.078Z,34.10
2019-03-31T20:59:34.515Z,34.20
2019-03-31T21:02:03.806Z,34.49
2019-03-31T21:04:33.017Z,34.28
2019-03-31T21:07:02.690Z,34.72
2019-03-31T21:09:44.228Z,34.43
2019-03-31T21:12:02.949Z,34.59
2019-03-31T21:14:32.162Z,35.03
2019-03-31T21:17:01.448Z,34.80
2019-03-31T21:19:31.004Z,35.14
2019-03-31T21:22:00.290Z,35.20
2019-03-31T21:24:29.482Z,35.26
2019-03-31T21:26:59.128Z,36.07
2019-03-31T21:29:28.341Z,35.59
2019-03-31T21:31:57.632Z,36.05
2019-03-31T21:34:27.192Z,35.82
2019-03-31T21:36:56.478Z,35.78
2019-03-31T21:39:25.683Z,35.85
2019-03-31T21:41:54.994Z,36.30
2019-03-31T21:44:24.285Z,36.41
2019-03-31T21:46:55.986Z,36.42
2019-03-31T21:49:24.833Z,36.53
2019-03-31T21:51:54.122Z,36.63
2019-03-31T21:54:23.341Z,37.21
2019-03-31T21:56:52.639Z,37.49
2019-03-31T21:59:21.859Z,37.72
2019-03-31T22:01:51.581Z,38.04
2019-03-31T22:04:20.800Z,38.25
2019-03-31T22:06:50.088Z,38.53
2019-03-31T22:09:19.331Z,38.88
2019-03-31T22:11:48.651Z,39.01
2019-03-31T22:14:17.926Z,39.29
2019-03-31T22:16:47.270Z,39.75
2019-03-31T22:19:16.843Z,40.04
2019-03-31T22:21:46.157Z,40.38
2019-03-31T22:24:54.731Z,40.72
2019-03-31T22:27:43.083Z,40.77
2019-03-31T22:30:24.505Z,40.96
2019-03-31T22:32:43.994Z,41.19
2019-03-31T22:35:13.228Z,41.29
2019-03-31T22:37:42.620Z,41.48
2019-03-31T22:40:11.963Z,41.54
2019-03-31T22:42:41.703Z,41.70
2019-03-31T22:45:11.225Z,41.81
2019-03-31T22:47:40.527Z,41.91
2019-03-31T22:50:09.735Z,41.93
2019-03-31T22:52:39.019Z,42.07
2019-03-31T22:55:08.293Z,42.21
2019-03-31T22:57:37.536Z,42.57
2019-03-31T23:00:27.402Z,42.58
2019-03-31T23:02:56.794Z,43.21
2019-03-31T23:05:26.022Z,43.04
2019-03-31T23:07:55.316Z,43.28
2019-03-31T23:10:24.675Z,43.68
2019-03-31T23:12:53.963Z,43.77
2019-03-31T23:15:23.207Z,44.15
2019-03-31T23:17:52.815Z,44.19
2019-03-31T23:20:22.087Z,44.30
2019-03-31T23:22:51.650Z,44.66
2019-03-31T23:25:20.925Z,44.73
2019-03-31T23:27:50.136Z,45.39
2019-03-31T23:30:19.425Z,45.23
2019-03-31T23:32:49.046Z,45.34
2019-03-31T23:35:18.442Z,45.47
2019-03-31T23:37:47.752Z,45.36
2019-03-31T23:40:17.049Z,45.48
2019-03-31T23:42:46.253Z,45.59
2019-03-31T23:45:34.872Z,45.69
2019-03-31T23:48:04.092Z,45.98
2019-03-31T23:50:33.373Z,46.04
2019-03-31T23:53:03.039Z,46.27
2019-03-31T23:55:32.343Z,46.17
2019-03-31T23:58:01.573Z,46.79
